sensor_id;sensor_type;location;lat;lon;timestamp;temperature;humidity
46562;DHT22;32289;42.688;23.330;2024-03-22T00:03:27;6.20;64.20
46562;DHT22;32289;42.688;23.330;2024-03-22T00:07:07;6.30;64.20
46562;DHT22;32289;42.688;23.330;2024-03-22T00:10:48;6.30;63.40
46562;DHT22;32289;42.688;23.330;2024-03-22T00:14:29;6.30;65.00
46562;DHT22;32289;42.688;23.330;2024-03-22T00:18:10;6.00;65.10
46562;DHT22;32289;42.688;23.330;2024-03-22T00:21:51;6.20;65.50
46562;DHT22;32289;42.688;23.330;2024-03-22T00:25:31;6.20;66.40
46562;DHT22;32289;42.688;23.330;2024-03-22T00:29:12;6.10;67.40
46562;DHT22;32289;42.688;23.330;2024-03-22T00:32:53;6.10;67.80
46562;DHT22;32289;42.688;23.330;2024-03-22T00:36:34;6.00;69.30
46562;DHT22;32289;42.688;23.330;2024-03-22T00:40:15;5.80;71.00
46562;DHT22;32289;42.688;23.330;2024-03-22T00:43:55;5.80;70.90
46562;DHT22;32289;42.688;23.330;2024-03-22T00:47:36;5.90;71.50
46562;DHT22;32289;42.688;23.330;2024-03-22T00:51:17;5.70;70.70
46562;DHT22;32289;42.688;23.330;2024-03-22T00:54:58;5.60;71.80
46562;DHT22;32289;42.688;23.330;2024-03-22T00:58:38;5.60;70.10
46562;DHT22;32289;42.688;23.330;2024-03-22T01:02:19;5.60;72.30
46562;DHT22;32289;42.688;23.330;2024-03-22T01:06:00;5.60;72.00
46562;DHT22;32289;42.688;23.330;2024-03-22T01:09:41;5.60;73.10
46562;DHT22;32289;42.688;23.330;2024-03-22T01:13:24;5.70;72.70
46562;DHT22;32289;42.688;23.330;2024-03-22T01:17:05;5.70;75.00
46562;DHT22;32289;42.688;23.330;2024-03-22T01:20:46;5.80;74.70
46562;DHT22;32289;42.688;23.330;2024-03-22T01:24:26;5.80;75.60
46562;DHT22;32289;42.688;23.330;2024-03-22T01:28:07;5.70;74.20
46562;DHT22;32289;42.688;23.330;2024-03-22T01:31:48;5.70;74.60
46562;DHT22;32289;42.688;23.330;2024-03-22T01:35:29;5.70;75.00
46562;DHT22;32289;42.688;23.330;2024-03-22T01:39:10;5.80;77.60
46562;DHT22;32289;42.688;23.330;2024-03-22T01:42:58;5.80;74.30
46562;DHT22;32289;42.688;23.330;2024-03-22T01:46:39;5.90;75.50
46562;DHT22;32289;42.688;23.330;2024-03-22T01:50:21;5.80;75.20
46562;DHT22;32289;42.688;23.330;2024-03-22T01:54:03;5.80;76.20
46562;DHT22;32289;42.688;23.330;2024-03-22T01:57:45;5.80;76.80
46562;DHT22;32289;42.688;23.330;2024-03-22T02:01:26;5.70;75.30
46562;DHT22;32289;42.688;23.330;2024-03-22T02:05:17;5.70;76.30
46562;DHT22;32289;42.688;23.330;2024-03-22T02:08:59;5.40;78.10
46562;DHT22;32289;42.688;23.330;2024-03-22T02:12:40;5.10;80.00
46562;DHT22;32289;42.688;23.330;2024-03-22T02:16:21;4.90;85.90
46562;DHT22;32289;42.688;23.330;2024-03-22T02:20:02;4.90;85.80
46562;DHT22;32289;42.688;23.330;2024-03-22T02:23:45;4.80;88.40
46562;DHT22;32289;42.688;23.330;2024-03-22T02:27:25;4.70;90.20
46562;DHT22;32289;42.688;23.330;2024-03-22T02:31:06;4.70;90.90
46562;DHT22;32289;42.688;23.330;2024-03-22T02:34:47;4.60;92.00
46562;DHT22;32289;42.688;23.330;2024-03-22T02:38:28;4.70;91.40
46562;DHT22;32289;42.688;23.330;2024-03-22T02:42:08;4.60;90.90
46562;DHT22;32289;42.688;23.330;2024-03-22T02:45:49;4.70;90.20
46562;DHT22;32289;42.688;23.330;2024-03-22T02:49:30;4.60;90.10
46562;DHT22;32289;42.688;23.330;2024-03-22T02:53:11;4.60;90.40
46562;DHT22;32289;42.688;23.330;2024-03-22T02:56:52;4.50;91.00
46562;DHT22;32289;42.688;23.330;2024-03-22T03:00:36;4.60;92.40
46562;DHT22;32289;42.688;23.330;2024-03-22T03:04:18;4.30;92.70
46562;DHT22;32289;42.688;23.330;2024-03-22T03:07:59;4.10;92.80
46562;DHT22;32289;42.688;23.330;2024-03-22T03:11:40;3.80;94.30
46562;DHT22;32289;42.688;23.330;2024-03-22T03:15:21;3.60;96.20
46562;DHT22;32289;42.688;23.330;2024-03-22T03:19:02;3.50;97.30
46562;DHT22;32289;42.688;23.330;2024-03-22T03:22:42;3.40;97.70
46562;DHT22;32289;42.688;23.330;2024-03-22T03:26:23;3.00;99.90
46562;DHT22;32289;42.688;23.330;2024-03-22T03:30:24;3.00;99.90
46562;DHT22;32289;42.688;23.330;2024-03-22T03:34:05;3.10;99.90
46562;DHT22;32289;42.688;23.330;2024-03-22T03:37:45;3.40;99.90
46562;DHT22;32289;42.688;23.330;2024-03-22T03:41:26;3.60;99.20
46562;DHT22;32289;42.688;23.330;2024-03-22T03:45:07;3.60;96.60
46562;DHT22;32289;42.688;23.330;2024-03-22T03:48:47;3.30;95.60
46562;DHT22;32289;42.688;23.330;2024-03-22T03:52:28;3.30;97.30
46562;DHT22;32289;42.688;23.330;2024-03-22T03:56:09;3.40;96.90
46562;DHT22;32289;42.688;23.330;2024-03-22T03:59:50;3.50;96.70
46562;DHT22;32289;42.688;23.330;2024-03-22T04:03:30;3.50;97.00
46562;DHT22;32289;42.688;23.330;2024-03-22T04:07:11;3.50;96.70
46562;DHT22;32289;42.688;23.330;2024-03-22T04:10:55;3.60;96.00
46562;DHT22;32289;42.688;23.330;2024-03-22T04:14:39;3.70;95.40
46562;DHT22;32289;42.688;23.330;2024-03-22T04:18:20;3.60;95.10
46562;DHT22;32289;42.688;23.330;2024-03-22T04:22:01;3.80;96.30
46562;DHT22;32289;42.688;23.330;2024-03-22T04:25:41;3.80;96.90
46562;DHT22;32289;42.688;23.330;2024-03-22T04:29:22;3.80;96.70
46562;DHT22;32289;42.688;23.330;2024-03-22T04:33:04;3.50;96.40
46562;DHT22;32289;42.688;23.330;2024-03-22T04:36:45;3.20;98.80
46562;DHT22;32289;42.688;23.330;2024-03-22T04:40:25;3.40;98.60
46562;DHT22;32289;42.688;23.330;2024-03-22T04:44:07;3.50;97.90
46562;DHT22;32289;42.688;23.330;2024-03-22T04:47:47;3.60;97.60
46562;DHT22;32289;42.688;23.330;2024-03-22T04:51:28;3.50;98.90
46562;DHT22;32289;42.688;23.330;2024-03-22T04:55:09;3.60;98.50
46562;DHT22;32289;42.688;23.330;2024-03-22T04:58:49;3.70;97.20
46562;DHT22;32289;42.688;23.330;2024-03-22T05:02:30;3.60;97.30
46562;DHT22;32289;42.688;23.330;2024-03-22T05:06:11;3.90;96.10
46562;DHT22;32289;42.688;23.330;2024-03-22T05:09:52;4.00;95.60
46562;DHT22;32289;42.688;23.330;2024-03-22T05:13:33;3.90;95.40
46562;DHT22;32289;42.688;23.330;2024-03-22T05:17:13;4.10;94.90
46562;DHT22;32289;42.688;23.330;2024-03-22T05:20:54;4.10;94.20
46562;DHT22;32289;42.688;23.330;2024-03-22T05:24:35;4.30;93.30
46562;DHT22;32289;42.688;23.330;2024-03-22T05:28:15;4.50;92.80
46562;DHT22;32289;42.688;23.330;2024-03-22T05:31:56;4.30;93.60
46562;DHT22;32289;42.688;23.330;2024-03-22T05:35:38;4.50;93.80
46562;DHT22;32289;42.688;23.330;2024-03-22T05:39:18;4.40;93.30
46562;DHT22;32289;42.688;23.330;2024-03-22T05:42:59;4.60;91.30
46562;DHT22;32289;42.688;23.330;2024-03-22T05:46:40;4.60;90.10
46562;DHT22;32289;42.688;23.330;2024-03-22T05:50:20;4.70;88.90
46562;DHT22;32289;42.688;23.330;2024-03-22T05:54:01;5.00;86.60
46562;DHT22;32289;42.688;23.330;2024-03-22T05:57:43;5.20;84.90
46562;DHT22;32289;42.688;23.330;2024-03-22T06:01:24;5.50;85.00
46562;DHT22;32289;42.688;23.330;2024-03-22T06:05:05;5.40;83.10
46562;DHT22;32289;42.688;23.330;2024-03-22T06:08:45;5.50;78.50
46562;DHT22;32289;42.688;23.330;2024-03-22T06:12:32;5.50;78.20
46562;DHT22;32289;42.688;23.330;2024-03-22T06:16:13;5.80;76.50
46562;DHT22;32289;42.688;23.330;2024-03-22T06:19:54;6.10;74.30
46562;DHT22;32289;42.688;23.330;2024-03-22T06:23:35;6.60;71.60
46562;DHT22;32289;42.688;23.330;2024-03-22T06:27:16;7.30;71.90
46562;DHT22;32289;42.688;23.330;2024-03-22T06:30:57;11.10;56.80
46562;DHT22;32289;42.688;23.330;2024-03-22T06:34:37;12.50;52.20
46562;DHT22;32289;42.688;23.330;2024-03-22T06:38:18;15.50;44.40
46562;DHT22;32289;42.688;23.330;2024-03-22T06:41:59;14.40;45.30
46562;DHT22;32289;42.688;23.330;2024-03-22T06:45:40;14.70;44.20
46562;DHT22;32289;42.688;23.330;2024-03-22T06:49:21;16.00;43.40
46562;DHT22;32289;42.688;23.330;2024-03-22T06:53:02;15.70;43.60
46562;DHT22;32289;42.688;23.330;2024-03-22T06:56:43;14.80;43.00
46562;DHT22;32289;42.688;23.330;2024-03-22T07:00:24;14.90;44.10
46562;DHT22;32289;42.688;23.330;2024-03-22T07:04:04;10.50;50.90
46562;DHT22;32289;42.688;23.330;2024-03-22T07:07:45;11.60;51.00
46562;DHT22;32289;42.688;23.330;2024-03-22T07:11:26;12.90;47.00
46562;DHT22;32289;42.688;23.330;2024-03-22T07:15:07;14.80;45.90
46562;DHT22;32289;42.688;23.330;2024-03-22T07:18:47;16.50;43.40
46562;DHT22;32289;42.688;23.330;2024-03-22T07:22:29;16.50;43.40
46562;DHT22;32289;42.688;23.330;2024-03-22T07:26:09;15.90;42.70
46562;DHT22;32289;42.688;23.330;2024-03-22T07:29:50;15.70;41.90
46562;DHT22;32289;42.688;23.330;2024-03-22T07:33:31;16.00;42.40
46562;DHT22;32289;42.688;23.330;2024-03-22T07:37:12;15.70;41.50
46562;DHT22;32289;42.688;23.330;2024-03-22T07:40:53;16.50;41.40
46562;DHT22;32289;42.688;23.330;2024-03-22T07:44:34;17.50;41.20
46562;DHT22;32289;42.688;23.330;2024-03-22T07:48:15;16.30;41.10
46562;DHT22;32289;42.688;23.330;2024-03-22T07:51:56;17.70;39.70
46562;DHT22;32289;42.688;23.330;2024-03-22T07:55:36;18.40;39.40
46562;DHT22;32289;42.688;23.330;2024-03-22T07:59:17;18.90;38.00
46562;DHT22;32289;42.688;23.330;2024-03-22T08:02:58;17.90;39.10
46562;DHT22;32289;42.688;23.330;2024-03-22T08:06:39;17.10;39.90
46562;DHT22;32289;42.688;23.330;2024-03-22T08:10:19;17.60;39.50
46562;DHT22;32289;42.688;23.330;2024-03-22T08:14:00;17.70;39.80
46562;DHT22;32289;42.688;23.330;2024-03-22T08:17:43;17.90;37.20
46562;DHT22;32289;42.688;23.330;2024-03-22T08:21:25;20.40;36.00
46562;DHT22;32289;42.688;23.330;2024-03-22T08:25:06;19.60;36.80
46562;DHT22;32289;42.688;23.330;2024-03-22T08:28:48;18.00;38.70
46562;DHT22;32289;42.688;23.330;2024-03-22T08:32:29;17.90;39.00
46562;DHT22;32289;42.688;23.330;2024-03-22T08:36:09;18.40;37.60
46562;DHT22;32289;42.688;23.330;2024-03-22T08:39:50;19.10;39.20
46562;DHT22;32289;42.688;23.330;2024-03-22T08:43:31;22.10;34.10
46562;DHT22;32289;42.688;23.330;2024-03-22T08:47:11;22.60;33.70
46562;DHT22;32289;42.688;23.330;2024-03-22T08:50:52;20.90;34.70
46562;DHT22;32289;42.688;23.330;2024-03-22T08:54:33;17.70;38.10
46562;DHT22;32289;42.688;23.330;2024-03-22T08:58:15;18.40;38.10
46562;DHT22;32289;42.688;23.330;2024-03-22T09:01:55;18.00;37.50
46562;DHT22;32289;42.688;23.330;2024-03-22T09:05:36;18.40;37.00
46562;DHT22;32289;42.688;23.330;2024-03-22T09:09:17;17.50;37.20
46562;DHT22;32289;42.688;23.330;2024-03-22T09:12:58;18.20;39.00
46562;DHT22;32289;42.688;23.330;2024-03-22T09:16:39;19.80;36.90
46562;DHT22;32289;42.688;23.330;2024-03-22T09:20:19;17.60;38.00
46562;DHT22;32289;42.688;23.330;2024-03-22T09:24:00;16.80;39.70
46562;DHT22;32289;42.688;23.330;2024-03-22T09:27:43;18.40;38.60
46562;DHT22;32289;42.688;23.330;2024-03-22T09:31:24;19.30;36.40
46562;DHT22;32289;42.688;23.330;2024-03-22T09:35:05;16.40;38.90
46562;DHT22;32289;42.688;23.330;2024-03-22T09:38:46;16.70;39.80
46562;DHT22;32289;42.688;23.330;2024-03-22T09:42:28;17.90;39.10
46562;DHT22;32289;42.688;23.330;2024-03-22T09:46:13;16.10;40.10
46562;DHT22;32289;42.688;23.330;2024-03-22T09:49:55;17.00;40.00
46562;DHT22;32289;42.688;23.330;2024-03-22T09:53:37;18.40;37.00
46562;DHT22;32289;42.688;23.330;2024-03-22T09:57:20;16.40;40.90
46562;DHT22;32289;42.688;23.330;2024-03-22T10:01:03;15.90;41.60
46562;DHT22;32289;42.688;23.330;2024-03-22T10:04:44;15.50;41.00
46562;DHT22;32289;42.688;23.330;2024-03-22T10:08:25;17.10;39.80
46562;DHT22;32289;42.688;23.330;2024-03-22T10:12:06;15.70;40.60
46562;DHT22;32289;42.688;23.330;2024-03-22T10:15:47;15.50;41.80
46562;DHT22;32289;42.688;23.330;2024-03-22T10:19:27;15.90;40.80
46562;DHT22;32289;42.688;23.330;2024-03-22T10:23:08;16.40;40.20
46562;DHT22;32289;42.688;23.330;2024-03-22T10:26:49;16.70;39.40
46562;DHT22;32289;42.688;23.330;2024-03-22T10:30:30;17.60;38.20
46562;DHT22;32289;42.688;23.330;2024-03-22T10:34:13;17.90;38.10
46562;DHT22;32289;42.688;23.330;2024-03-22T10:37:54;16.60;39.70
46562;DHT22;32289;42.688;23.330;2024-03-22T10:41:35;15.50;41.30
46562;DHT22;32289;42.688;23.330;2024-03-22T10:45:16;17.50;38.70
46562;DHT22;32289;42.688;23.330;2024-03-22T10:49:02;17.00;38.70
46562;DHT22;32289;42.688;23.330;2024-03-22T10:52:52;16.30;40.10
46562;DHT22;32289;42.688;23.330;2024-03-22T10:56:34;16.20;40.30
46562;DHT22;32289;42.688;23.330;2024-03-22T11:00:15;18.30;37.50
46562;DHT22;32289;42.688;23.330;2024-03-22T11:04:06;17.10;38.20
46562;DHT22;32289;42.688;23.330;2024-03-22T11:07:47;17.50;38.70
46562;DHT22;32289;42.688;23.330;2024-03-22T11:11:28;17.60;37.90
46562;DHT22;32289;42.688;23.330;2024-03-22T11:15:10;16.70;38.70
46562;DHT22;32289;42.688;23.330;2024-03-22T11:18:52;17.50;38.30
46562;DHT22;32289;42.688;23.330;2024-03-22T11:22:33;16.60;39.30
46562;DHT22;32289;42.688;23.330;2024-03-22T11:26:14;16.40;39.20
46562;DHT22;32289;42.688;23.330;2024-03-22T11:29:55;17.00;38.40
46562;DHT22;32289;42.688;23.330;2024-03-22T11:33:36;15.60;40.70
46562;DHT22;32289;42.688;23.330;2024-03-22T11:37:17;16.60;39.10
46562;DHT22;32289;42.688;23.330;2024-03-22T11:40:59;15.40;40.80
46562;DHT22;32289;42.688;23.330;2024-03-22T11:44:40;15.90;39.90
46562;DHT22;32289;42.688;23.330;2024-03-22T11:48:21;16.20;38.90
46562;DHT22;32289;42.688;23.330;2024-03-22T11:52:03;15.70;40.20
46562;DHT22;32289;42.688;23.330;2024-03-22T11:55:44;16.90;39.10
46562;DHT22;32289;42.688;23.330;2024-03-22T11:59:24;17.30;37.00
46562;DHT22;32289;42.688;23.330;2024-03-22T12:03:05;15.80;39.80
46562;DHT22;32289;42.688;23.330;2024-03-22T12:06:47;16.10;38.90
46562;DHT22;32289;42.688;23.330;2024-03-22T12:10:27;15.90;39.70
46562;DHT22;32289;42.688;23.330;2024-03-22T12:14:08;16.20;39.10
46562;DHT22;32289;42.688;23.330;2024-03-22T12:17:49;16.40;40.00
46562;DHT22;32289;42.688;23.330;2024-03-22T12:21:29;16.80;38.40
46562;DHT22;32289;42.688;23.330;2024-03-22T12:25:10;15.80;39.90
46562;DHT22;32289;42.688;23.330;2024-03-22T12:28:52;16.70;37.60
46562;DHT22;32289;42.688;23.330;2024-03-22T12:32:33;16.10;36.50
46562;DHT22;32289;42.688;23.330;2024-03-22T12:36:13;16.10;38.00
46562;DHT22;32289;42.688;23.330;2024-03-22T12:39:54;16.60;37.40
46562;DHT22;32289;42.688;23.330;2024-03-22T12:43:35;16.80;37.60
46562;DHT22;32289;42.688;23.330;2024-03-22T12:47:15;15.00;40.30
46562;DHT22;32289;42.688;23.330;2024-03-22T12:50:56;15.20;39.60
46562;DHT22;32289;42.688;23.330;2024-03-22T12:54:37;15.50;41.20
46562;DHT22;32289;42.688;23.330;2024-03-22T12:58:18;15.80;38.70
46562;DHT22;32289;42.688;23.330;2024-03-22T13:01:59;16.00;39.40
46562;DHT22;32289;42.688;23.330;2024-03-22T13:05:42;15.60;39.30
46562;DHT22;32289;42.688;23.330;2024-03-22T13:09:22;15.10;40.50
46562;DHT22;32289;42.688;23.330;2024-03-22T13:13:03;14.80;40.40
46562;DHT22;32289;42.688;23.330;2024-03-22T13:16:46;14.60;41.30
46562;DHT22;32289;42.688;23.330;2024-03-22T13:20:27;15.30;40.00
46562;DHT22;32289;42.688;23.330;2024-03-22T13:24:07;15.70;40.20
46562;DHT22;32289;42.688;23.330;2024-03-22T13:27:48;14.90;40.00
46562;DHT22;32289;42.688;23.330;2024-03-22T13:31:29;14.90;40.30
46562;DHT22;32289;42.688;23.330;2024-03-22T13:35:10;14.10;40.90
46562;DHT22;32289;42.688;23.330;2024-03-22T13:38:51;14.90;40.50
46562;DHT22;32289;42.688;23.330;2024-03-22T13:42:32;15.80;40.50
46562;DHT22;32289;42.688;23.330;2024-03-22T13:46:13;15.50;38.90
46562;DHT22;32289;42.688;23.330;2024-03-22T13:49:57;15.20;39.00
46562;DHT22;32289;42.688;23.330;2024-03-22T13:53:38;15.10;39.00
46562;DHT22;32289;42.688;23.330;2024-03-22T13:57:19;14.70;39.30
46562;DHT22;32289;42.688;23.330;2024-03-22T14:01:00;15.20;38.40
46562;DHT22;32289;42.688;23.330;2024-03-22T14:04:41;14.90;39.70
46562;DHT22;32289;42.688;23.330;2024-03-22T14:08:22;14.70;40.50
46562;DHT22;32289;42.688;23.330;2024-03-22T14:12:03;15.10;39.40
46562;DHT22;32289;42.688;23.330;2024-03-22T14:15:44;15.00;39.70
46562;DHT22;32289;42.688;23.330;2024-03-22T14:19:25;14.70;40.10
46562;DHT22;32289;42.688;23.330;2024-03-22T14:23:05;14.40;41.50
46562;DHT22;32289;42.688;23.330;2024-03-22T14:26:47;14.60;41.30
46562;DHT22;32289;42.688;23.330;2024-03-22T14:30:28;14.40;41.50
46562;DHT22;32289;42.688;23.330;2024-03-22T14:34:09;14.20;41.50
46562;DHT22;32289;42.688;23.330;2024-03-22T14:37:49;14.50;41.60
46562;DHT22;32289;42.688;23.330;2024-03-22T14:41:31;14.10;41.70
46562;DHT22;32289;42.688;23.330;2024-03-22T14:45:11;13.90;42.40
46562;DHT22;32289;42.688;23.330;2024-03-22T14:48:55;13.80;42.30
46562;DHT22;32289;42.688;23.330;2024-03-22T14:52:36;14.00;41.90
46562;DHT22;32289;42.688;23.330;2024-03-22T14:56:18;14.20;41.10
46562;DHT22;32289;42.688;23.330;2024-03-22T15:00:00;14.20;41.30
46562;DHT22;32289;42.688;23.330;2024-03-22T15:03:40;14.40;41.20
46562;DHT22;32289;42.688;23.330;2024-03-22T15:07:21;14.40;40.60
46562;DHT22;32289;42.688;23.330;2024-03-22T15:11:03;14.40;41.00
46562;DHT22;32289;42.688;23.330;2024-03-22T15:14:44;14.00;41.00
46562;DHT22;32289;42.688;23.330;2024-03-22T15:18:25;14.30;40.50
46562;DHT22;32289;42.688;23.330;2024-03-22T15:22:07;14.40;39.80
46562;DHT22;32289;42.688;23.330;2024-03-22T15:25:49;14.00;40.20
46562;DHT22;32289;42.688;23.330;2024-03-22T15:29:30;14.10;41.20
46562;DHT22;32289;42.688;23.330;2024-03-22T15:33:12;13.60;43.00
46562;DHT22;32289;42.688;23.330;2024-03-22T15:36:53;13.70;43.10
46562;DHT22;32289;42.688;23.330;2024-03-22T15:40:34;13.40;42.90
46562;DHT22;32289;42.688;23.330;2024-03-22T15:44:14;13.50;42.80
46562;DHT22;32289;42.688;23.330;2024-03-22T15:47:55;13.40;42.90
46562;DHT22;32289;42.688;23.330;2024-03-22T15:51:36;13.40;43.10
46562;DHT22;32289;42.688;23.330;2024-03-22T15:55:20;13.50;43.40
46562;DHT22;32289;42.688;23.330;2024-03-22T15:59:01;13.30;43.80
46562;DHT22;32289;42.688;23.330;2024-03-22T16:02:41;13.30;44.30
46562;DHT22;32289;42.688;23.330;2024-03-22T16:06:22;13.00;44.40
46562;DHT22;32289;42.688;23.330;2024-03-22T16:10:03;12.90;44.70
46562;DHT22;32289;42.688;23.330;2024-03-22T16:13:47;12.90;44.90
46562;DHT22;32289;42.688;23.330;2024-03-22T16:17:27;12.80;45.00
46562;DHT22;32289;42.688;23.330;2024-03-22T16:21:08;12.70;45.40
46562;DHT22;32289;42.688;23.330;2024-03-22T16:24:51;12.50;46.30
46562;DHT22;32289;42.688;23.330;2024-03-22T16:28:32;12.40;46.70
46562;DHT22;32289;42.688;23.330;2024-03-22T16:32:13;12.30;47.30
46562;DHT22;32289;42.688;23.330;2024-03-22T16:35:54;12.20;47.60
46562;DHT22;32289;42.688;23.330;2024-03-22T16:39:34;12.00;48.10
46562;DHT22;32289;42.688;23.330;2024-03-22T16:43:15;12.00;47.80
46562;DHT22;32289;42.688;23.330;2024-03-22T16:46:56;11.90;47.80
46562;DHT22;32289;42.688;23.330;2024-03-22T16:50:36;11.80;47.80
46562;DHT22;32289;42.688;23.330;2024-03-22T16:54:17;11.70;47.90
46562;DHT22;32289;42.688;23.330;2024-03-22T16:57:58;11.60;48.20
46562;DHT22;32289;42.688;23.330;2024-03-22T17:01:41;11.50;48.60
46562;DHT22;32289;42.688;23.330;2024-03-22T17:05:21;11.50;48.90
46562;DHT22;32289;42.688;23.330;2024-03-22T17:09:02;11.40;49.10
46562;DHT22;32289;42.688;23.330;2024-03-22T17:12:43;11.30;49.30
46562;DHT22;32289;42.688;23.330;2024-03-22T17:16:24;11.30;49.70
46562;DHT22;32289;42.688;23.330;2024-03-22T17:20:05;11.10;50.20
46562;DHT22;32289;42.688;23.330;2024-03-22T17:23:46;11.10;50.60
46562;DHT22;32289;42.688;23.330;2024-03-22T17:27:27;11.10;50.60
46562;DHT22;32289;42.688;23.330;2024-03-22T17:31:08;10.90;51.00
46562;DHT22;32289;42.688;23.330;2024-03-22T17:34:50;10.90;51.40
46562;DHT22;32289;42.688;23.330;2024-03-22T17:38:30;10.80;51.60
46562;DHT22;32289;42.688;23.330;2024-03-22T17:42:11;10.70;52.00
46562;DHT22;32289;42.688;23.330;2024-03-22T17:45:59;10.70;52.00
46562;DHT22;32289;42.688;23.330;2024-03-22T17:49:39;10.60;52.50
46562;DHT22;32289;42.688;23.330;2024-03-22T17:53:20;10.70;52.80
46562;DHT22;32289;42.688;23.330;2024-03-22T17:57:01;10.70;52.80
46562;DHT22;32289;42.688;23.330;2024-03-22T18:00:42;10.60;53.10
46562;DHT22;32289;42.688;23.330;2024-03-22T18:04:22;10.60;53.20
46562;DHT22;32289;42.688;23.330;2024-03-22T18:08:03;10.40;54.10
46562;DHT22;32289;42.688;23.330;2024-03-22T18:11:44;10.40;53.70
46562;DHT22;32289;42.688;23.330;2024-03-22T18:15:25;10.40;54.10
46562;DHT22;32289;42.688;23.330;2024-03-22T18:19:06;10.40;53.90
46562;DHT22;32289;42.688;23.330;2024-03-22T18:22:50;10.30;53.90
46562;DHT22;32289;42.688;23.330;2024-03-22T18:26:31;10.30;54.40
46562;DHT22;32289;42.688;23.330;2024-03-22T18:30:11;10.10;53.80
46562;DHT22;32289;42.688;23.330;2024-03-22T18:33:52;10.20;54.60
46562;DHT22;32289;42.688;23.330;2024-03-22T18:37:33;10.10;54.10
46562;DHT22;32289;42.688;23.330;2024-03-22T18:41:13;10.10;54.20
46562;DHT22;32289;42.688;23.330;2024-03-22T18:44:54;10.20;55.00
46562;DHT22;32289;42.688;23.330;2024-03-22T18:48:35;10.00;54.50
46562;DHT22;32289;42.688;23.330;2024-03-22T18:52:19;10.00;56.30
46562;DHT22;32289;42.688;23.330;2024-03-22T18:56:03;9.90;57.00
46562;DHT22;32289;42.688;23.330;2024-03-22T18:59:43;9.90;57.40
46562;DHT22;32289;42.688;23.330;2024-03-22T19:03:24;9.70;58.10
46562;DHT22;32289;42.688;23.330;2024-03-22T19:07:05;9.60;58.00
46562;DHT22;32289;42.688;23.330;2024-03-22T19:10:45;9.50;58.20
46562;DHT22;32289;42.688;23.330;2024-03-22T19:14:26;9.40;58.50
46562;DHT22;32289;42.688;23.330;2024-03-22T19:18:07;9.30;58.60
46562;DHT22;32289;42.688;23.330;2024-03-22T19:21:47;9.40;58.60
46562;DHT22;32289;42.688;23.330;2024-03-22T19:25:28;9.40;58.80
46562;DHT22;32289;42.688;23.330;2024-03-22T19:29:13;9.20;59.40
46562;DHT22;32289;42.688;23.330;2024-03-22T19:32:54;9.10;59.60
46562;DHT22;32289;42.688;23.330;2024-03-22T19:36:36;9.20;59.70
46562;DHT22;32289;42.688;23.330;2024-03-22T19:40:17;9.40;59.70
46562;DHT22;32289;42.688;23.330;2024-03-22T19:43:57;9.00;61.10
46562;DHT22;32289;42.688;23.330;2024-03-22T19:47:38;10.00;68.90
46562;DHT22;32289;42.688;23.330;2024-03-22T19:51:19;10.30;69.40
46562;DHT22;32289;42.688;23.330;2024-03-22T19:54:59;10.80;69.20
46562;DHT22;32289;42.688;23.330;2024-03-22T19:58:40;9.60;60.20
46562;DHT22;32289;42.688;23.330;2024-03-22T20:02:21;8.60;63.10
46562;DHT22;32289;42.688;23.330;2024-03-22T20:06:01;8.30;65.10
46562;DHT22;32289;42.688;23.330;2024-03-22T20:09:42;8.60;65.00
46562;DHT22;32289;42.688;23.330;2024-03-22T20:13:24;8.20;64.90
46562;DHT22;32289;42.688;23.330;2024-03-22T20:17:05;8.10;65.50
46562;DHT22;32289;42.688;23.330;2024-03-22T20:20:46;8.10;67.40
46562;DHT22;32289;42.688;23.330;2024-03-22T20:24:27;8.20;67.80
46562;DHT22;32289;42.688;23.330;2024-03-22T20:28:09;8.10;67.10
46562;DHT22;32289;42.688;23.330;2024-03-22T20:31:49;8.00;67.20
